createdAt,value
2023-02-21T00:04:22.754Z,8.60
2023-02-21T00:09:13.878Z,8.50
2023-02-21T00:14:04.562Z,8.60
2023-02-21T00:18:55.961Z,8.60
2023-02-21T00:23:47.020Z,8.60
2023-02-21T00:28:40.320Z,8.60
2023-02-21T00:33:31.477Z,8.50
2023-02-21T00:38:22.991Z,8.50
2023-02-21T00:43:13.183Z,8.50
2023-02-21T00:48:04.266Z,8.50
2023-02-21T00:52:55.643Z,8.60
2023-02-21T00:57:46.696Z,8.60
2023-02-21T01:02:37.924Z,8.60
2023-02-21T01:07:28.508Z,8.50
2023-02-21T01:12:19.911Z,8.50
2023-02-21T01:17:13.307Z,8.50
2023-02-21T01:22:01.898Z,8.60
2023-02-21T01:26:53.230Z,8.60
2023-02-21T01:31:44.342Z,8.60
2023-02-21T01:36:35.046Z,8.70
2023-02-21T01:41:26.426Z,8.50
2023-02-21T01:46:17.569Z,8.50
2023-02-21T01:51:08.560Z,8.60
2023-02-21T01:55:59.663Z,8.50
2023-02-21T02:00:50.679Z,8.60
2023-02-21T02:05:41.769Z,8.80
2023-02-21T02:10:32.779Z,8.50
2023-02-21T02:15:23.968Z,8.50
2023-02-21T02:20:14.942Z,8.50
2023-02-21T02:25:05.909Z,8.50
2023-02-21T02:29:57.220Z,8.50
2023-02-21T02:34:48.119Z,8.50
2023-02-21T02:39:38.906Z,8.50
2023-02-21T02:44:29.956Z,8.50
2023-02-21T02:49:21.001Z,8.50
2023-02-21T02:54:12.365Z,8.50
2023-02-21T02:59:05.743Z,8.60
2023-02-21T03:03:57.242Z,8.60
2023-02-21T03:08:48.206Z,8.50
2023-02-21T03:13:39.262Z,8.50
2023-02-21T03:18:30.316Z,8.50
2023-02-21T03:23:21.072Z,8.40
2023-02-21T03:28:12.451Z,8.50
2023-02-21T03:33:03.527Z,8.40
2023-02-21T03:37:54.518Z,8.50
2023-02-21T03:42:45.673Z,8.50
2023-02-21T03:47:36.745Z,8.70
2023-02-21T03:52:27.806Z,8.40
2023-02-21T03:57:18.850Z,8.20
2023-02-21T04:02:09.975Z,8.40
2023-02-21T04:07:00.971Z,8.40
2023-02-21T04:11:52.020Z,8.40
2023-02-21T04:16:43.105Z,8.30
2023-02-21T04:21:33.856Z,8.30
2023-02-21T04:26:24.886Z,8.40
2023-02-21T04:31:16.490Z,8.30
2023-02-21T04:36:07.393Z,8.40
2023-02-21T04:40:58.416Z,8.30
2023-02-21T04:45:49.503Z,8.20
2023-02-21T04:50:40.654Z,8.20
2023-02-21T04:55:31.604Z,8.30
2023-02-21T05:00:22.671Z,8.30
2023-02-21T05:05:13.798Z,8.30
2023-02-21T05:10:04.768Z,8.40
2023-02-21T05:14:55.841Z,8.50
2023-02-21T05:19:46.992Z,8.40
2023-02-21T05:24:37.704Z,8.40
2023-02-21T05:29:29.196Z,8.30
2023-02-21T05:34:20.036Z,8.30
2023-02-21T05:39:11.270Z,8.30
2023-02-21T05:44:01.913Z,8.30
2023-02-21T05:48:53.277Z,8.40
2023-02-21T05:53:44.352Z,8.60
2023-02-21T05:58:35.381Z,8.30
2023-02-21T06:03:26.543Z,8.40
2023-02-21T06:08:17.211Z,8.40
2023-02-21T06:13:08.715Z,8.50
2023-02-21T06:17:59.690Z,8.40
2023-02-21T06:22:50.431Z,8.30
2023-02-21T06:27:41.804Z,8.30
2023-02-21T06:32:32.881Z,8.30
2023-02-21T06:37:23.600Z,8.30
2023-02-21T06:42:14.939Z,8.20
2023-02-21T06:47:09.485Z,8.30
2023-02-21T06:52:00.562Z,8.30
2023-02-21T06:56:51.268Z,8.30
2023-02-21T07:01:42.624Z,8.20
2023-02-21T07:06:33.506Z,8.20
2023-02-21T07:11:24.537Z,8.10
2023-02-21T07:16:15.549Z,8.20
2023-02-21T07:21:06.895Z,8.20
2023-02-21T07:25:57.976Z,8.20
2023-02-21T07:30:48.861Z,8.10
2023-02-21T07:35:39.807Z,8.00
2023-02-21T07:40:31.176Z,8.00
2023-02-21T07:45:21.937Z,8.10
2023-02-21T07:50:13.295Z,8.60
2023-02-21T07:55:04.003Z,8.60
2023-02-21T07:59:55.093Z,8.80
2023-02-21T08:04:46.473Z,9.50
2023-02-21T08:09:37.251Z,9.10
2023-02-21T08:14:28.595Z,8.70
2023-02-21T08:19:19.768Z,8.40
2023-02-21T08:24:10.881Z,8.60
2023-02-21T08:29:01.751Z,8.50
2023-02-21T08:33:52.458Z,8.40
2023-02-21T08:38:43.558Z,8.30
2023-02-21T08:43:34.979Z,8.40
2023-02-21T08:48:25.722Z,8.20
2023-02-21T08:53:16.962Z,8.40
2023-02-21T08:58:08.238Z,8.40
2023-02-21T09:02:59.046Z,8.50
2023-02-21T09:07:50.115Z,8.50
2023-02-21T09:12:43.512Z,8.60
2023-02-21T09:17:34.601Z,8.60
2023-02-21T09:22:27.896Z,8.60
2023-02-21T09:27:19.188Z,8.60
2023-02-21T09:32:10.101Z,8.70
2023-02-21T09:37:03.042Z,8.90
2023-02-21T09:41:54.219Z,8.90
2023-02-21T09:46:45.534Z,9.00
2023-02-21T09:51:36.563Z,8.80
2023-02-21T09:56:29.889Z,9.10
2023-02-21T10:01:21.124Z,9.10
2023-02-21T10:06:12.036Z,9.00
2023-02-21T10:11:03.184Z,9.00
2023-02-21T10:15:54.115Z,9.00
2023-02-21T10:20:44.935Z,9.20
2023-02-21T10:25:36.343Z,9.20
2023-02-21T10:30:29.800Z,9.00
2023-02-21T10:35:31.972Z,9.10
2023-02-21T10:40:24.968Z,9.00
2023-02-21T10:45:23.182Z,7.40
2023-02-21T10:50:18.746Z,8.90
2023-02-21T10:55:26.521Z,9.00
2023-02-21T11:00:09.558Z,8.80
2023-02-21T11:05:03.199Z,9.00
2023-02-21T11:09:54.303Z,8.90
2023-02-21T11:14:45.422Z,9.00
2023-02-21T11:19:40.609Z,8.90
2023-02-21T11:24:34.253Z,9.10
2023-02-21T11:29:28.037Z,9.00
2023-02-21T11:34:20.907Z,9.00
2023-02-21T11:39:11.962Z,9.10
2023-02-21T11:44:03.318Z,9.20
2023-02-21T11:48:54.398Z,9.10
2023-02-21T11:53:56.431Z,9.00
2023-02-21T11:58:54.558Z,8.80
2023-02-21T12:03:47.570Z,8.80
2023-02-21T12:09:37.002Z,8.80
2023-02-21T12:14:28.350Z,8.90
2023-02-21T12:19:19.399Z,8.90
2023-02-21T12:24:13.754Z,9.00
2023-02-21T12:29:05.217Z,9.00
2023-02-21T12:33:55.923Z,8.90
2023-02-21T12:38:46.986Z,9.00
2023-02-21T12:43:38.372Z,9.10
2023-02-21T12:48:29.132Z,9.00
2023-02-21T12:53:20.519Z,9.10
2023-02-21T12:58:11.583Z,8.90
2023-02-21T13:03:02.346Z,8.90
2023-02-21T13:07:53.691Z,8.90
2023-02-21T13:12:46.710Z,9.10
2023-02-21T13:17:38.109Z,9.10
2023-02-21T13:22:31.387Z,9.30
2023-02-21T13:27:22.531Z,9.30
2023-02-21T13:32:15.875Z,9.20
2023-02-21T13:37:06.562Z,9.20
2023-02-21T13:41:57.931Z,9.20
2023-02-21T13:46:48.791Z,9.20
2023-02-21T13:51:40.202Z,9.30
2023-02-21T13:56:30.823Z,9.20
2023-02-21T14:01:21.936Z,9.40
2023-02-21T14:06:15.419Z,9.40
2023-02-21T14:11:06.629Z,9.40
2023-02-21T14:15:57.671Z,9.40
2023-02-21T14:20:48.724Z,9.30
2023-02-21T14:25:39.450Z,9.60
2023-02-21T14:30:30.784Z,9.70
2023-02-21T14:35:21.800Z,9.70
2023-02-21T14:40:12.922Z,9.80
2023-02-21T14:45:03.742Z,9.90
2023-02-21T14:49:54.758Z,9.90
2023-02-21T14:54:46.163Z,9.80
2023-02-21T15:00:35.144Z,9.90
2023-02-21T15:05:26.464Z,9.80
2023-02-21T15:10:19.644Z,9.60
2023-02-21T15:15:12.868Z,9.60
2023-02-21T15:20:04.030Z,9.60
2023-02-21T15:24:56.995Z,9.70
2023-02-21T15:29:48.430Z,9.80
2023-02-21T15:35:02.026Z,9.90
2023-02-21T15:40:48.926Z,10.10
2023-02-21T15:45:44.485Z,10.00
2023-02-21T15:50:49.194Z,10.10
2023-02-21T15:56:45.600Z,10.00
2023-02-21T16:01:47.886Z,10.00
2023-02-21T16:06:47.654Z,10.00
2023-02-21T16:11:49.878Z,9.80
2023-02-21T16:16:47.715Z,9.90
2023-02-21T16:21:47.856Z,9.70
2023-02-21T16:26:43.364Z,9.70
2023-02-21T16:31:34.505Z,9.80
2023-02-21T16:36:30.041Z,9.60
2023-02-21T16:41:21.356Z,9.60
2023-02-21T16:46:14.169Z,9.60
2023-02-21T16:51:10.041Z,9.60
2023-02-21T16:56:01.150Z,9.60
2023-02-21T17:00:52.155Z,9.50
2023-02-21T17:05:49.687Z,9.60
2023-02-21T17:10:41.108Z,9.50
2023-02-21T17:15:34.397Z,9.50
2023-02-21T17:20:25.456Z,9.50
2023-02-21T17:25:21.020Z,9.50
2023-02-21T17:30:11.803Z,9.50
2023-02-21T17:35:05.390Z,9.50
2023-02-21T17:39:56.569Z,9.50
2023-02-21T17:44:49.822Z,9.50
2023-02-21T17:49:46.678Z,9.50
2023-02-21T17:54:39.747Z,9.50
2023-02-21T17:59:33.275Z,9.80
2023-02-21T18:04:26.710Z,9.70
2023-02-21T18:09:20.476Z,9.60
2023-02-21T18:14:13.568Z,9.60
2023-02-21T18:19:06.933Z,9.60
2023-02-21T18:24:00.234Z,9.50
2023-02-21T18:29:00.427Z,9.60
2023-02-21T18:33:51.412Z,9.50
2023-02-21T18:38:42.716Z,9.50
2023-02-21T18:43:33.834Z,9.60
2023-02-21T18:48:24.909Z,9.60
2023-02-21T18:53:17.903Z,9.60
2023-02-21T18:58:09.327Z,9.50
2023-02-21T19:03:00.344Z,9.40
2023-02-21T19:07:53.307Z,9.40
2023-02-21T19:12:42.145Z,9.30
2023-02-21T19:17:33.527Z,9.20
2023-02-21T19:22:24.285Z,9.20
2023-02-21T19:27:15.423Z,9.20
2023-02-21T19:32:06.860Z,9.20
2023-02-21T19:37:00.190Z,9.20
2023-02-21T19:41:50.834Z,9.20
2023-02-21T19:46:42.213Z,9.10
2023-02-21T19:51:33.077Z,9.10
2023-02-21T19:56:26.690Z,9.10
2023-02-21T20:01:17.922Z,9.10
2023-02-21T20:06:08.527Z,9.20
2023-02-21T20:11:02.121Z,9.10
2023-02-21T20:15:55.480Z,9.10
2023-02-21T20:20:46.684Z,9.10
2023-02-21T20:25:37.384Z,9.00
2023-02-21T20:30:28.428Z,9.00
2023-02-21T20:35:19.448Z,9.10
2023-02-21T20:40:10.841Z,9.20
2023-02-21T20:45:01.902Z,9.10
2023-02-21T20:49:52.648Z,9.10
2023-02-21T20:54:43.678Z,9.00
2023-02-21T20:59:38.429Z,9.00
2023-02-21T21:04:29.457Z,9.00
2023-02-21T21:09:20.469Z,9.00
2023-02-21T21:14:11.177Z,9.00
2023-02-21T21:19:02.532Z,8.80
2023-02-21T21:23:53.293Z,9.00
2023-02-21T21:28:44.683Z,8.90
2023-02-21T21:33:35.774Z,8.90
2023-02-21T21:38:26.726Z,8.90
2023-02-21T21:43:17.551Z,8.90
2023-02-21T21:48:08.971Z,8.90
2023-02-21T21:53:02.368Z,9.00
2023-02-21T21:57:53.548Z,9.00
2023-02-21T22:02:44.464Z,9.10
2023-02-21T22:07:37.631Z,9.00
2023-02-21T22:12:31.042Z,9.00
2023-02-21T22:17:25.239Z,9.00
2023-02-21T22:22:16.641Z,9.00
2023-02-21T22:27:07.718Z,9.00
2023-02-21T22:31:58.847Z,9.00
2023-02-21T22:36:49.471Z,8.90
2023-02-21T22:41:40.783Z,8.90
2023-02-21T22:46:31.958Z,8.90
2023-02-21T22:51:23.167Z,8.90
2023-02-21T22:56:14.185Z,8.90
2023-02-21T23:01:05.138Z,8.90
2023-02-21T23:05:56.196Z,8.90
2023-02-21T23:10:47.301Z,8.80
2023-02-21T23:15:38.321Z,8.80
2023-02-21T23:20:29.428Z,8.80
2023-02-21T23:25:20.432Z,8.90
2023-02-21T23:30:11.552Z,8.80
2023-02-21T23:35:02.252Z,8.80
2023-02-21T23:39:53.667Z,8.80
2023-02-21T23:44:44.413Z,8.80
2023-02-21T23:49:38.558Z,8.80
2023-02-21T23:54:26.921Z,8.80
2023-02-21T23:59:17.568Z,8.70
